Kursk, Russia
Current Conditions -  °F | °C
As of 10:00 PM on Friday 28 Nov 2014 (Local Time) from UUOK Reporting Station
Light Snow Light Snow  
Wind Chill: 11°   Ceiling: 800
Heat Index: 23°   Visibility: 4mi
Dew Point: 19°   Wind: 13mph
Humidity: 86%   Direction: 100°E
Pressure: 30.48"   Gusts: NA
Location:  51.73°N, 36.19°E
Report Text: UUOK 281900Z 10006MPS 6000 -SN OVC008 M05/M07 Q1032 NOSIG RMK12490235
Loading
Personal Weather Stations






























Interactive Weather Map New forecast layout! Learn more

10-Day Weather Forecast

Advertisements
Track Severe Weather on mobile